Baileys Prairie, Texas
Current Conditions -  °F | °C
As of 2:53 PM on Tuesday 27 Jan 2015 (Local Time) from KLBX Reporting Station
Clear Clear  
Wind Chill: 76°   Ceiling: Unl
Heat Index: 76°   Visibility: 10mi
Dew Point: 45°   Wind: 6mph
Humidity: 33%   Direction: 300°WNW
Pressure: 30.11"   Gusts: NA
Location:  29.1898°N, 95.4754°W
Report Text: KLBX 272053Z AUTO 30005KT 10SM CLR 24/07 A3011 RMK AO2 SLP194 T02440072 56017
Loading
Personal Weather Stations






























Interactive Weather Map New forecast layout! Learn more

10-Day Weather Forecast

Advertisements
Track Severe Weather on mobile